Pagina principale
METAR-TAF:

METAR-TAF

Aeroporti :

Sion, Svizzera

latitudine: 46-13N, longitudine: 007-20E, altezza: 482 m

Osservazione

Il bollettino è stato emesso 19 minuti fa, alle 18:20 UTC
Vento 11 kt da ovest
Temperature 14°C
Umidità 72%
Pressione 1004 hPa
Visibilità 10 km o più
Poco nuvoloso ad un'altezza di 2000 ft
Nubi sparse ad un'altezza di 4000 ft
Nuvoloso ad un'altezza di 8000 ft

METAR: LSGS 191820Z 26011KT 9999 FEW020 SCT040 BKN080 14/09 Q1004

Ora: 20:39 (18:39 UTC)

Previsione

Il bollettino è stato emesso 4 ore e 14 minuti fa, alle 14:25 UTC
Previsione valida dal 19 alle 15 UTC al 19 alle 24 UTC
Vento 12 kt da ovest/sud-ovest
Visibilità 10 km o più
Poco nuvoloso ad un'altezza di 3000 ft
Nuvoloso ad un'altezza di 10000 ft
Evoluzione graduale
dal 19 alle 18 UTC al 19 alle 20 UTC
Vento 3 kt da direzioni variabili

TAF: LSGS 191425Z 1915/1924 25012KT 9999 FEW030 BKN100 BECMG 1918/1920 VRB03KT

Osservazioni e previsioni meteorologiche di più di 4000 aeroporti (messaggi METAR e TAF).

Le stazioni disponibili sono rappresentate dai dischi gialli e rossi sulla carta.

Puntare il mouse per vedere il nome della stazione.

Clicca sopra per visualizzare le osservazioni e previsioni meteorologiche.

Per cambiare la mappa : fare clic sui pulsanti verdi con una croce nera per ingrandire, il pulsante verde con un trattino per diminuire, o sulla freccia verde per le mappe adiacenti.


METAR-TAF: